TimeCST,TemperatureF,Dew PointF,Humidity,Sea Level PressureIn,VisibilityMPH,Wind Direction,Wind SpeedMPH,Gust SpeedMPH,PrecipitationIn,Events,Conditions,WindDirDegrees,DateUTC
12:53 AM,41.0,36.0,82,29.77,10.0,South,5.8,-,N/A,,Clear,190,2011-11-12 06:53:00
1:53 AM,42.1,36.0,79,29.76,10.0,South,5.8,-,N/A,,Clear,170,2011-11-12 07:53:00
2:53 AM,43.0,37.0,80,29.73,10.0,South,4.6,-,N/A,,Clear,170,2011-11-12 08:53:00
3:53 AM,36.0,34.0,93,29.72,10.0,Calm,Calm,-,N/A,,Clear,0,2011-11-12 09:53:00
4:53 AM,34.0,33.1,96,29.71,10.0,SSE,5.8,-,N/A,,Clear,150,2011-11-12 10:53:00
5:53 AM,41.0,35.6,81,29.69,10.0,SSE,5.8,-,N/A,,Clear,160,2011-11-12 11:53:00
6:53 AM,43.0,35.1,74,29.69,10.0,SSE,9.2,-,N/A,,Clear,160,2011-11-12 12:53:00
7:53 AM,45.0,36.0,71,29.68,10.0,South,10.4,-,N/A,,Clear,170,2011-11-12 13:53:00
8:53 AM,48.0,36.0,63,29.66,10.0,SSE,12.7,-,N/A,,Clear,160,2011-11-12 14:53:00
9:53 AM,51.1,36.0,56,29.65,10.0,South,15.0,-,N/A,,Clear,180,2011-11-12 15:53:00
10:53 AM,55.0,36.0,49,29.62,10.0,South,20.7,24.2,N/A,,Clear,180,2011-11-12 16:53:00
11:53 AM,55.9,36.0,47,29.59,10.0,South,16.1,24.2,N/A,,Clear,190,2011-11-12 17:53:00
12:53 PM,55.9,35.1,45,29.55,10.0,South,19.6,-,N/A,,Clear,180,2011-11-12 18:53:00
1:53 PM,59.0,36.0,42,29.52,10.0,South,19.6,27.6,N/A,,Clear,190,2011-11-12 19:53:00
2:53 PM,60.1,37.0,42,29.50,10.0,South,18.4,26.5,N/A,,Clear,190,2011-11-12 20:53:00
3:53 PM,61.0,37.0,41,29.49,10.0,South,19.6,23.0,N/A,,Clear,180,2011-11-12 21:53:00
4:53 PM,57.9,37.9,47,29.48,10.0,South,12.7,-,N/A,,Clear,180,2011-11-12 22:53:00
5:53 PM,55.0,37.9,53,29.49,10.0,South,10.4,-,N/A,,Clear,190,2011-11-12 23:53:00
6:53 PM,53.1,37.9,57,29.49,10.0,SSW,8.1,-,N/A,,Clear,200,2011-11-13 00:53:00
7:53 PM,50.0,37.9,63,29.48,10.0,South,8.1,-,N/A,,Clear,190,2011-11-13 01:53:00
8:53 PM,51.1,39.0,63,29.49,10.0,SSW,8.1,-,N/A,,Clear,200,2011-11-13 02:53:00
9:53 PM,48.0,39.0,71,29.49,10.0,SSW,6.9,-,N/A,,Clear,200,2011-11-13 03:53:00
10:53 PM,52.0,42.1,69,29.46,10.0,SSW,12.7,-,N/A,,Clear,200,2011-11-13 04:53:00
11:53 PM,52.0,41.0,66,29.44,10.0,South,8.1,-,N/A,,Clear,190,2011-11-13 05:53:00